Time;durP1;ratioP1;P1;durP2;ratioP2;P2;SDS_P1;SDS_P2;PMS_P1;PMS_P2;Temp;Humidity;BMP_temperature;BMP_pressure;BME280_temperature;BME280_humidity;BME280_pressure;Samples;Min_cycle;Max_cycle;Signal;HPM_P1;HPM_P2
2021/03/19 04:46:25;;;;;;;13.13;9.80;;;;;;;2.80;64.11;94011.54;828940;71;32761;-77
2021/03/19 05:01:15;;;;;;;14.35;10.28;;;;;;;2.93;63.50;94013.67;827964;71;33209;-76
2021/03/19 05:16:10;;;;;;;12.00;8.73;;;;;;;2.99;62.69;94018.37;828068;71;30263;-76
2021/03/19 05:31:15;;;;;;;13.93;9.15;;;;;;;3.04;61.78;94030.56;827279;71;32850;-74
2021/03/19 05:46:13;;;;;;;16.90;12.15;;;;;;;3.12;60.63;94046.93;833961;71;30211;-79
2021/03/19 06:01:09;;;;;;;14.43;9.68;;;;;;;3.29;59.65;94044.95;828034;71;29726;-76
2021/03/19 06:16:29;;;;;;;14.43;9.98;;;;;;;3.94;58.20;94053.19;828274;71;32063;-77
2021/03/19 06:31:17;;;;;;;15.68;10.82;;;;;;;5.57;55.47;94064.47;828007;71;29717;-76
2021/03/19 06:46:11;;;;;;;13.28;8.73;;;;;;;7.21;50.92;94069.11;833765;71;30184;-78
2021/03/19 07:01:32;;;;;;;12.30;8.00;;;;;;;9.41;45.59;94079.66;828046;71;31415;-76
2021/03/19 07:16:17;;;;;;;9.93;8.40;;;;;;;10.97;42.03;94072.98;827711;71;32741;-76
2021/03/19 07:31:41;;;;;;;9.68;8.33;;;;;;;12.42;39.54;94068.81;828079;71;30765;-76
2021/03/19 07:46:15;;;;;;;10.65;9.58;;;;;;;14.32;37.29;94065.13;824630;71;30763;-78
2021/03/19 08:01:26;;;;;;;10.90;9.30;;;;;;;14.11;36.14;94061.13;828010;71;30287;-77
2021/03/19 08:16:33;;;;;;;13.53;10.70;;;;;;;13.47;36.70;94067.36;827175;71;32733;-79
2021/03/19 08:31:36;;;;;;;11.90;10.38;;;;;;;13.55;36.22;94069.95;827195;71;32753;-77
2021/03/19 08:46:16;;;;;;;10.98;9.78;;;;;;;15.88;43.65;94049.62;833812;71;31455;-77
2021/03/19 09:01:55;;;;;;;15.68;12.30;;;;;;;16.26;32.96;94035.23;827967;71;30390;-75
2021/03/19 09:16:37;;;;;;;11.18;9.95;;;;;;;17.05;31.32;94014.84;827456;71;32784;-77
2021/03/19 09:31:27;;;;;;;11.83;9.65;;;;;;;17.12;30.73;94026.97;828111;71;32558;-77
2021/03/19 09:46:21;;;;;;;12.95;10.48;;;;;;;17.58;30.09;94023.92;833662;71;30799;-78
2021/03/19 10:01:15;;;;;;;14.40;11.63;;;;;;;17.50;29.49;94001.75;834655;71;32040;-77
2021/03/19 10:16:25;;;;;;;11.12;9.95;;;;;;;18.02;29.33;94025.11;827755;71;33190;-78
2021/03/19 10:31:14;;;;;;;10.25;9.05;;;;;;;18.56;28.47;94030.22;828263;71;29665;-77
2021/03/19 10:46:24;;;;;;;9.70;8.80;;;;;;;18.74;27.54;94024.69;834050;71;30273;-78
2021/03/19 11:01:47;;;;;;;9.35;8.45;;;;;;;17.68;26.92;94004.03;828753;71;32758;-77
2021/03/19 11:16:32;;;;;;;30.97;26.73;;;;;;;17.15;28.16;94013.05;827834;71;32687;-79
2021/03/19 11:31:17;;;;;;;11.20;10.00;;;;;;;22.23;28.43;94005.05;828128;71;29741;-80
2021/03/19 11:46:20;;;;;;;10.50;9.40;;;;;;;19.28;25.51;93996.98;828297;71;32937;-76
2021/03/19 12:01:09;;;;;;;11.88;10.60;;;;;;;16.84;27.75;93989.13;828130;71;29731;-77
2021/03/19 12:16:15;;;;;;;11.80;8.90;;;;;;;15.43;29.37;93989.65;833754;71;32827;-76
2021/03/19 12:31:14;;;;;;;12.40;9.18;;;;;;;14.83;30.39;93991.31;826774;71;32674;-76
2021/03/19 12:46:09;;;;;;;10.18;8.80;;;;;;;14.37;30.86;93975.17;828083;71;30295;-78
2021/03/19 13:01:09;;;;;;;10.63;9.53;;;;;;;14.33;30.84;93979.00;827889;71;30288;-78
2021/03/19 13:16:19;;;;;;;9.78;8.70;;;;;;;13.53;31.72;93987.02;827145;71;32717;-77
2021/03/19 13:31:20;;;;;;;11.25;9.70;;;;;;;12.94;34.00;93983.75;826664;71;32770;-78
2021/03/19 13:46:15;;;;;;;10.65;8.53;;;;;;;12.86;32.73;93978.73;833964;71;32567;-78
2021/03/19 14:01:10;;;;;;;10.75;9.15;;;;;;;11.86;33.55;93993.64;828997;71;29685;-76
2021/03/19 14:16:13;;;;;;;8.75;7.85;;;;;;;11.19;35.04;94004.67;835053;71;31604;-79
2021/03/19 14:31:09;;;;;;;9.25;8.05;;;;;;;10.61;36.00;93998.50;827702;71;29516;-79
2021/03/19 14:46:10;;;;;;;11.63;9.35;;;;;;;10.34;36.34;94003.86;833912;71;31079;-78
2021/03/19 15:01:33;;;;;;;10.08;9.08;;;;;;;9.90;37.07;94011.90;829768;71;29730;-78
2021/03/19 15:16:08;;;;;;;13.15;9.75;;;;;;;;;;828098;71;29705;-76
2021/03/19 15:31:11;;;;;;;10.32;8.68;;;;;;;8.84;39.04;94039.30;828006;71;30033;-77
2021/03/19 15:46:08;;;;;;;13.62;10.00;;;;;;;8.51;40.10;94051.03;828265;71;29376;-79
2021/03/19 16:01:12;;;;;;;12.47;9.45;;;;;;;8.09;40.71;94073.58;829653;71;30818;-79
2021/03/19 16:16:18;;;;;;;12.05;9.75;;;;;;;7.69;41.52;94081.40;827178;71;32689;-78
2021/03/19 16:31:16;;;;;;;13.13;9.90;;;;;;;7.38;41.97;94098.17;827870;71;31803;-77
